AirNav   Pilot Hours Calculator
 
 613 users online  

03VA Spotsylvania Regional Medical Center Heliport
Fredericksburg, Virginia, USA

GOING TO FREDERICKSBURG?


FAA INFORMATION EFFECTIVE 08 OCTOBER 2020

Location

FAA Identifier: 03VA
Lat/Long: 38-12-59.8200N 077-29-43.9800W
38-12.997000N 077-29.733000W
38.2166167,-77.4955500
(estimated)
Elevation: 237 ft. / 72 m (estimated)
From city: 5 miles S of FREDERICKSBURG, VA
Time zone: UTC -4 (UTC -5 during Standard Time)
Zip code: 22408

Heliport Operations

Heliport use: Private use. Permission required prior to landing
Activation date: 02/2010
Control tower: no
ARTCC: WASHINGTON CENTER
FSS: LEESBURG FLIGHT SERVICE STATION
Attendance: CONTINUOUS
Wind indicator: yes
Segmented circle: no
Lights: SS-SR

Heliport Communications

WX AWOS-3 at EZF (4 nm NE): 128.125 (540-372-6794)
WX AWOS-3 at RMN (11 nm N): 126.325 (540-657-8283)
WX AWOS-3 at 7W4 (19 nm SW): 120.775 (540-872-0303)

Nearby radio navigation aids

VOR radial/distance  VOR name  Freq  Var
BRVr232/9.8BROOKE VORTAC114.5009W
CSNr152/30.8CASANOVA VORTAC116.3006W
GVEr075/33.3GORDONSVILLE VORTAC115.6006W

 
NDB name  Hdg/Dist  Freq  Var  ID
SHANNON225/3.723710WEZF . --.. ..-.
NAILR136/24.035110WMSQ -- ... --.-
DAVEE223/32.322309WDAA -.. .- .-
OXONN225/39.633211WDCA -.. -.-. .-

Heliport Services

Runway Information

Helipad H1

Dimensions: 54 x 54 ft. / 16 x 16 m
Surface: concrete
Runway edge lights: FLD
Latitude: 38-12.997000N
Longitude: 077-29.733000W
Elevation: 237.0 ft.
Traffic pattern: leftleft

Heliport Ownership and Management from official FAA records

Ownership: Privately-owned
Owner: SPOTSYLVANIA REGIONAL MEDICAL CNTR
4600 SPOTSYLVANIA PKWY
FREDERICKSBURG, VA 22408
Phone (540) 498-4350
Manager: JAMES MCCAMMON
4600 SPOTSYLVANIA PKWY
FREDERICKSBURG, VA 22408
Phone (540) 498-4350

Additional Remarks

FOR CD CTC POTOMAC APCH AT 866-709-4993.

Instrument Procedures

There are no published instrument procedures at 03VA.

Some nearby airports with instrument procedures:

KEZF - Shannon Airport (4 nm NE)
KRMN - Stafford Regional Airport (11 nm N)
7W4 - Lake Anna Airport (19 nm SW)
KNYG - Quantico Marine Corps Airfield / Turner Field (19 nm NE)
KHWY - Warrenton-Fauquier Airport (24 nm NW)
 
Loc | Ops | Rwys | IFR | FBO | Links
Com | Nav | Svcs | Stats | Notes
Aerial photo
WARNING: Photo may not be current or correct
Aerial photo of 03VA (Spotsylvania Regional Medical Center Heliport)
Photo taken 15-Apr-2010

Do you have a better or more recent aerial photo of Spotsylvania Regional Medical Center Heliport that you would like to share? If so, please send us your photo.

 
Sectional chart

 
Airport distance calculator
Flying to Spotsylvania Regional Medical Center Heliport? Find the distance to fly.

From to 03VA

Sunrise and sunset
Times for 20-Oct-2020
 Local
(UTC-4)
 Zulu
(UTC)
Morning civil twilight06:5910:59
Sunrise07:2611:26
Sunset18:2422:24
Evening civil twilight18:5022:50

Current date and time
Zulu (UTC)  20-Oct-2020 04:50:01
Local (UTC-4)  20-Oct-2020 00:50:01
 
METAR
KEZF 
4nm NE 
200435Z AUTO 13005KT 10SM SCT008 13/13 A3023 RMK AO2 T01300130
KRMN 
11nm N 
200435Z AUTO 00000KT 7SM CLR 12/12 A3028 RMK AO2 T01150115
K7W4 
19nm SW 
200435Z AUTO 00000KT 7SM CLR 12/12 A3025 RMK AO1 T01220116
KNYG 
20nm NE 
200356Z AUTO 00000KT 8SM CLR 15/13 A3025 RMK AO2 SLP246 T01500133
TAF
KNYG 
20nm NE 
2003/2103 VRB06KT 9999 SCT005 QNH3020INS FM201500 VRB06KT 9999 SKC QNH3022INS BECMG 2100/2103 VRB06KT 9999 SCT008 BKN020 QNH3021INS T13/2012Z T23/2019Z
NOTAMs
Click for the latest NOTAMs
NOTAMs are issued by the DoD/FAA and will open in a separate window not controlled by AirNav.

 

 
 

Would you like to see your business listed on this page?

 If your business provides an interesting product or service to pilots, flight crews, aircraft, or users of the Spotsylvania Regional Medical Center Heliport, you should consider listing it here.  To start the listing process, click on the button below
 
Add a business
 

Other Pages about Spotsylvania Regional Medical Center Heliport

Update a link
 
Copyright © AirNav, LLC. All rights reserved. Privacy Policy  Contact